Middleboro, MA

10:15 AM EDT on March 27, 2015 (GMT -0400)
KMAMIDDL3 | | Change Station
CLOSE
Current Station
Personal Weather Station
Location: Middleboro, MA
Elevation: 39 ft
Nearby Weather Stations

Elev 39 ft 41.92 °N, 70.92 °W | Updated 6 seconds ago

Rain
Rain
40.5 °F
Feels Like 38 °F
N
4.0
Wind Variable Wind from NE
Gusts 5.0 mph

Today
High -- | Low -- °F
--% Chance of Precip.
Yesterday
High -- | Low -- °F
Precip. -- in
6:35 AM 7:03 PM
First Quarter, 53% visible
Pressure 29.71 in
Visibility 10.0 miles
Clouds Mostly Cloudy 900 ft
Overcast 1300 ft
Windchill 38 °F
Dew Point 31 °F
Humidity 65%
Rainfall 0.25 in
Snow Depth Not available.
UV 1 out of 12
Pollen 2.80 out of 12
Air Quality Not available.
Flu Activity Not available.
METAR KTAN 271352Z AUTO 01004KT 10SM BKN009 OVC013 05/03 A2971 RMK AO2 RAE30 CIG 007V011 SLP061 P0000 T00500033

More Conditions Fewer Conditions

Pressure 29.71 in
Visibility 10.0 miles
Clouds Mostly Cloudy 900 ft
Overcast 1300 ft
Windchill 38 °F
Dew Point 31 °F
Humidity 65%
Rainfall 0.25 in
Snow Depth Not available.
UV 1 out of 12
Pollen 2.80 out of 12
Air Quality Not available.
Flu Activity Not available.
METAR KTAN 271352Z AUTO 01004KT 10SM BKN009 OVC013 05/03 A2971 RMK AO2 RAE30 CIG 007V011 SLP061 P0000 T00500033

More Conditions Fewer Conditions

10-Day Weather Forecast

Almanac

Astronomy

Mar. 27, 2015 Rise Set
Actual Time
Civil Twilight
Nautical Twilight
Astronomical Twilight
Moon
Length of Visible Light
Length of Day
Tomorrow will be .
, % of the Moon is Illuminated

Today's Extremes

State Highs State Lows

Community

WunderPhotos

Upload Photos

1,808,735 photos uploaded!

WunderBlogs® & News

Nearby

Air Quality

  Air Quality AQ Index Pollutant
Not available.

Snow Depth

Station Depth Elevation

Earthquake Activity

City Distance Mag. Time & Date
Minimum magnitude displayed is 2.5.

Coastal Water Temperatures

Place Temperature

Stations

Nearby Weather Stations

Station Location Temp. Windchill Dew Point Humidity Wind Precip. Elev Updated Type